createdAt,value
2023-03-19T00:01:04.654Z,3.00
2023-03-19T00:03:33.056Z,2.40
2023-03-19T00:06:02.915Z,3.40
2023-03-19T00:08:31.355Z,2.73
2023-03-19T00:10:59.716Z,2.30
2023-03-19T00:13:28.273Z,2.33
2023-03-19T00:15:56.582Z,2.20
2023-03-19T00:18:25.221Z,2.63
2023-03-19T00:20:53.589Z,2.30
2023-03-19T00:23:23.339Z,2.90
2023-03-19T00:25:51.659Z,2.37
2023-03-19T00:28:20.012Z,3.00
2023-03-19T00:30:48.736Z,2.30
2023-03-19T00:33:17.175Z,3.40
2023-03-19T00:35:46.205Z,2.37
2023-03-19T00:38:14.574Z,2.50
2023-03-19T00:40:44.253Z,2.33
2023-03-19T00:43:12.623Z,2.53
2023-03-19T00:45:41.758Z,2.40
2023-03-19T00:48:10.118Z,3.07
2023-03-19T00:50:38.494Z,2.37
2023-03-19T00:53:06.828Z,1.93
2023-03-19T00:55:35.464Z,3.07
2023-03-19T00:58:06.644Z,2.20
2023-03-19T01:00:38.034Z,1.73
2023-03-19T01:03:06.427Z,2.40
2023-03-19T01:08:05.227Z,2.57
2023-03-19T01:10:35.819Z,2.83
2023-03-19T01:13:05.561Z,2.23
2023-03-19T01:15:36.840Z,2.50
2023-03-19T01:18:05.240Z,2.80
2023-03-19T01:20:34.040Z,2.60
2023-03-19T01:23:02.673Z,3.57
2023-03-19T01:25:31.023Z,3.07
2023-03-19T01:27:59.378Z,2.80
2023-03-19T01:30:29.102Z,1.80
2023-03-19T01:32:57.525Z,2.63
2023-03-19T01:35:25.879Z,3.23
2023-03-19T01:37:54.265Z,3.13
2023-03-19T01:40:22.643Z,2.07
2023-03-19T01:42:54.593Z,2.20
2023-03-19T01:45:33.608Z,2.30
2023-03-19T01:48:02.532Z,2.50
2023-03-19T01:50:42.331Z,2.30
2023-03-19T01:53:12.634Z,3.20
2023-03-19T01:55:42.594Z,3.00
2023-03-19T01:58:11.772Z,2.87
2023-03-19T02:00:41.984Z,2.67
2023-03-19T02:03:10.370Z,3.40
2023-03-19T02:05:39.562Z,2.40
2023-03-19T02:08:23.010Z,2.57
2023-03-19T02:10:52.220Z,3.00
2023-03-19T02:13:20.595Z,3.10
2023-03-19T02:15:51.023Z,2.57
2023-03-19T02:18:19.906Z,2.90
2023-03-19T02:20:51.292Z,2.60
2023-03-19T02:23:24.839Z,3.07
2023-03-19T02:25:58.722Z,3.13
2023-03-19T02:28:27.177Z,2.20
2023-03-19T02:30:55.584Z,3.00
2023-03-19T02:33:23.955Z,2.90
2023-03-19T02:35:53.771Z,3.77
2023-03-19T02:38:22.744Z,2.77
2023-03-19T02:40:53.519Z,3.20
2023-03-19T02:43:24.092Z,3.00
2023-03-19T02:45:52.470Z,2.43
2023-03-19T02:48:20.861Z,4.00
2023-03-19T02:50:49.197Z,3.83
2023-03-19T02:53:17.611Z,6.80
2023-03-19T02:55:45.966Z,4.10
2023-03-19T02:58:14.495Z,3.50
2023-03-19T03:00:45.169Z,4.17
2023-03-19T03:03:13.530Z,5.50
2023-03-19T03:05:42.120Z,5.97
2023-03-19T03:08:10.650Z,4.07
2023-03-19T03:10:39.039Z,3.70
2023-03-19T03:13:07.424Z,3.37
2023-03-19T03:15:35.855Z,3.80
2023-03-19T03:18:06.023Z,3.30
2023-03-19T03:20:34.746Z,2.80
2023-03-19T03:23:03.267Z,2.90
2023-03-19T03:25:31.710Z,3.37
2023-03-19T03:28:00.044Z,4.67
2023-03-19T03:30:28.412Z,4.20
2023-03-19T03:32:56.848Z,3.97
2023-03-19T03:35:27.401Z,3.47
2023-03-19T03:37:55.795Z,3.30
2023-03-19T03:40:24.120Z,3.93
2023-03-19T03:42:52.504Z,3.90
2023-03-19T03:45:20.891Z,3.57
2023-03-19T03:47:49.479Z,4.27
2023-03-19T03:50:17.925Z,4.67
2023-03-19T03:52:47.995Z,4.57
2023-03-19T03:55:16.349Z,3.43
2023-03-19T03:57:44.728Z,4.07
2023-03-19T04:00:14.302Z,3.40
2023-03-19T04:02:42.692Z,4.07
2023-03-19T04:05:11.261Z,3.67
2023-03-19T04:07:39.686Z,3.90
2023-03-19T04:10:10.603Z,3.77
2023-03-19T04:12:39.912Z,4.37
2023-03-19T04:15:09.421Z,2.60
2023-03-19T04:17:37.744Z,3.27
2023-03-19T04:20:06.567Z,4.07
2023-03-19T04:22:34.910Z,3.50
2023-03-19T04:25:03.333Z,3.17
2023-03-19T04:27:33.070Z,3.23
2023-03-19T04:30:01.536Z,3.00
2023-03-19T04:32:29.941Z,3.77
2023-03-19T04:34:58.528Z,3.93
2023-03-19T04:37:27.102Z,3.30
2023-03-19T04:39:55.513Z,3.20
2023-03-19T04:42:24.840Z,3.10
2023-03-19T04:44:54.563Z,2.93
2023-03-19T04:47:22.932Z,3.67
2023-03-19T04:49:51.425Z,3.90
2023-03-19T04:52:19.776Z,3.40
2023-03-19T04:54:48.108Z,3.07
2023-03-19T04:57:16.765Z,3.00
2023-03-19T04:59:45.129Z,3.53
2023-03-19T05:02:15.602Z,2.80
2023-03-19T05:04:44.183Z,3.20
2023-03-19T05:07:12.754Z,4.20
2023-03-19T05:09:43.233Z,3.70
2023-03-19T05:12:12.340Z,3.97
2023-03-19T05:14:40.751Z,3.93
2023-03-19T05:17:11.166Z,3.60
2023-03-19T05:19:41.002Z,4.50
2023-03-19T05:22:09.394Z,4.40
2023-03-19T05:24:38.410Z,3.53
2023-03-19T05:27:07.511Z,4.20
2023-03-19T05:29:36.208Z,3.87
2023-03-19T05:32:05.204Z,3.10
2023-03-19T05:34:34.000Z,3.27
2023-03-19T05:37:03.903Z,4.10
2023-03-19T05:39:32.236Z,4.77
2023-03-19T05:42:00.623Z,3.80
2023-03-19T05:44:28.987Z,5.17
2023-03-19T05:46:57.646Z,4.70
2023-03-19T05:49:25.968Z,4.10
2023-03-19T05:51:54.271Z,4.47
2023-03-19T05:54:24.684Z,3.87
2023-03-19T05:56:53.009Z,4.07
2023-03-19T05:59:21.607Z,4.47
2023-03-19T06:01:50.045Z,4.40
2023-03-19T06:04:18.509Z,3.47
2023-03-19T06:06:47.288Z,3.70
2023-03-19T06:09:15.882Z,3.93
2023-03-19T06:11:45.633Z,4.00
2023-03-19T06:14:13.979Z,3.33
2023-03-19T06:16:42.685Z,3.93
2023-03-19T06:19:11.286Z,3.70
2023-03-19T06:21:39.607Z,3.90
2023-03-19T06:24:08.337Z,3.20
2023-03-19T06:26:37.322Z,3.37
2023-03-19T06:29:07.673Z,4.50
2023-03-19T06:31:36.358Z,3.63
2023-03-19T06:34:04.751Z,2.80
2023-03-19T06:36:33.161Z,3.70
2023-03-19T06:39:01.647Z,3.60
2023-03-19T06:41:29.989Z,3.50
2023-03-19T06:43:58.355Z,3.83
2023-03-19T06:46:28.017Z,3.37
2023-03-19T06:48:56.400Z,3.90
2023-03-19T06:51:27.695Z,4.53
2023-03-19T06:53:56.643Z,4.47
2023-03-19T06:56:25.018Z,2.80
2023-03-19T06:58:53.358Z,3.40
2023-03-19T07:01:21.767Z,3.20
2023-03-19T07:03:51.601Z,3.77
2023-03-19T07:06:19.968Z,3.90
2023-03-19T07:08:48.318Z,3.40
2023-03-19T07:11:16.863Z,4.13
2023-03-19T07:13:45.332Z,3.93
2023-03-19T07:16:13.816Z,4.20
2023-03-19T07:18:42.144Z,5.00
2023-03-19T07:21:11.847Z,4.70
2023-03-19T07:23:40.316Z,5.13
2023-03-19T07:26:08.696Z,4.10
2023-03-19T07:28:37.061Z,5.33
2023-03-19T07:31:05.601Z,4.30
2023-03-19T07:33:33.956Z,3.00
2023-03-19T07:36:02.410Z,3.30
2023-03-19T07:38:32.192Z,4.37
2023-03-19T07:41:02.944Z,3.70
2023-03-19T07:43:31.907Z,4.10
2023-03-19T07:46:00.734Z,3.33
2023-03-19T07:48:29.131Z,3.40
2023-03-19T07:50:57.504Z,3.53
2023-03-19T07:53:26.100Z,3.30
2023-03-19T07:55:55.964Z,2.57
2023-03-19T07:58:24.354Z,5.30
2023-03-19T08:00:52.740Z,6.43
2023-03-19T08:03:21.100Z,5.73
2023-03-19T08:05:50.184Z,6.00
2023-03-19T08:08:19.197Z,5.70
2023-03-19T08:10:50.633Z,6.00
2023-03-19T08:13:20.388Z,6.87
2023-03-19T08:15:48.721Z,8.10
2023-03-19T08:18:17.077Z,7.27
2023-03-19T08:20:47.023Z,5.37
2023-03-19T08:23:15.571Z,5.20
2023-03-19T08:25:43.927Z,4.10
2023-03-19T08:28:12.616Z,5.13
2023-03-19T08:30:42.551Z,4.50
2023-03-19T08:33:11.121Z,3.67
2023-03-19T08:35:40.620Z,4.50
2023-03-19T08:38:08.981Z,4.77
2023-03-19T08:40:37.354Z,5.30
2023-03-19T08:43:06.684Z,6.20
2023-03-19T08:45:35.102Z,5.50
2023-03-19T08:48:04.956Z,6.40
2023-03-19T08:50:33.743Z,6.10
2023-03-19T08:53:02.221Z,5.23
2023-03-19T08:55:30.588Z,5.30
2023-03-19T08:57:58.930Z,3.40
2023-03-19T09:00:27.989Z,2.10
2023-03-19T09:02:56.363Z,2.57
2023-03-19T09:05:28.124Z,2.20
2023-03-19T09:07:57.996Z,2.03
2023-03-19T09:10:26.570Z,2.03
2023-03-19T09:12:54.924Z,2.40
2023-03-19T09:15:23.295Z,2.40
2023-03-19T09:17:51.681Z,3.13
2023-03-19T09:20:20.499Z,1.73
2023-03-19T09:22:50.380Z,1.50
2023-03-19T09:25:18.858Z,2.43
2023-03-19T09:27:47.249Z,2.60
2023-03-19T09:30:16.087Z,2.23
2023-03-19T09:32:44.632Z,2.17
2023-03-19T09:35:13.333Z,1.90
2023-03-19T09:37:41.740Z,1.77
2023-03-19T09:40:16.294Z,2.77
2023-03-19T09:42:54.708Z,2.00
2023-03-19T09:45:23.288Z,2.20
2023-03-19T09:47:53.414Z,1.70
2023-03-19T09:50:23.039Z,2.03
2023-03-19T09:52:53.469Z,2.00
2023-03-19T09:55:29.685Z,2.00
2023-03-19T09:58:00.808Z,2.07
2023-03-19T10:00:31.258Z,2.30
2023-03-19T10:03:04.073Z,1.93
2023-03-19T10:05:37.475Z,2.30
2023-03-19T10:08:20.728Z,2.17
2023-03-19T10:10:53.821Z,2.33
2023-03-19T10:13:31.632Z,1.90
2023-03-19T10:16:00.763Z,2.07
2023-03-19T10:18:31.303Z,2.10
2023-03-19T10:21:00.601Z,2.23
2023-03-19T10:23:39.585Z,1.57
2023-03-19T10:26:11.637Z,2.07
2023-03-19T10:28:40.779Z,2.30
2023-03-19T10:31:15.148Z,2.00
2023-03-19T10:33:46.576Z,2.17
2023-03-19T10:36:16.390Z,1.83
2023-03-19T10:38:45.111Z,1.70
2023-03-19T10:41:22.951Z,1.77
2023-03-19T10:43:54.432Z,2.17
2023-03-19T10:46:22.905Z,1.73
2023-03-19T10:48:51.344Z,1.93
2023-03-19T10:51:23.192Z,2.10
2023-03-19T10:53:53.978Z,1.80
2023-03-19T10:56:25.229Z,1.60
2023-03-19T10:59:01.301Z,1.50
2023-03-19T11:01:30.296Z,2.30
2023-03-19T11:03:59.645Z,1.57
2023-03-19T11:06:29.547Z,2.40
2023-03-19T11:08:58.930Z,2.00
2023-03-19T11:11:34.521Z,1.60
2023-03-19T11:14:08.052Z,2.20
2023-03-19T11:16:48.282Z,2.77
2023-03-19T11:19:21.835Z,1.83
2023-03-19T11:22:02.706Z,1.43
2023-03-19T11:24:33.820Z,1.97
2023-03-19T11:27:04.145Z,2.30
2023-03-19T11:29:32.974Z,1.43
2023-03-19T11:32:20.819Z,1.63
2023-03-19T11:34:54.200Z,2.17
2023-03-19T11:37:28.502Z,2.13
2023-03-19T11:40:01.298Z,2.57
2023-03-19T11:42:42.685Z,1.90
2023-03-19T11:45:15.175Z,2.10
2023-03-19T11:47:48.870Z,2.40
2023-03-19T11:50:20.936Z,1.43
2023-03-19T11:52:55.383Z,2.00
2023-03-19T11:55:27.258Z,1.60
2023-03-19T11:58:04.247Z,1.70
2023-03-19T12:00:37.296Z,1.70
2023-03-19T12:03:24.129Z,2.43
2023-03-19T12:05:57.019Z,2.30
2023-03-19T12:08:33.211Z,2.73
2023-03-19T12:11:05.682Z,2.23
2023-03-19T12:13:44.216Z,1.90
2023-03-19T12:16:17.488Z,1.60
2023-03-19T12:19:03.788Z,2.70
2023-03-19T12:21:34.081Z,1.80
2023-03-19T12:24:05.926Z,2.27
2023-03-19T12:26:40.446Z,1.80
2023-03-19T12:29:16.833Z,1.87
2023-03-19T12:31:50.398Z,2.20
2023-03-19T12:34:23.933Z,2.10
2023-03-19T12:36:55.871Z,2.00
2023-03-19T12:39:26.539Z,1.90
2023-03-19T12:41:57.032Z,2.30
2023-03-19T12:44:28.865Z,2.33
2023-03-19T12:46:59.547Z,2.90
2023-03-19T12:49:30.439Z,1.60
2023-03-19T12:52:02.187Z,2.37
2023-03-19T12:54:32.728Z,2.30
2023-03-19T12:57:02.017Z,2.53
2023-03-19T12:59:34.978Z,1.90
2023-03-19T13:02:05.737Z,1.43
2023-03-19T13:04:39.799Z,1.73
2023-03-19T13:07:10.640Z,1.80
2023-03-19T13:09:42.634Z,1.80
2023-03-19T13:12:13.716Z,1.40
2023-03-19T13:14:50.140Z,1.90
2023-03-19T13:17:23.686Z,1.87
2023-03-19T13:19:54.393Z,1.70
2023-03-19T13:22:23.756Z,2.13
2023-03-19T13:24:53.422Z,2.30
2023-03-19T13:27:23.262Z,1.47
2023-03-19T13:29:58.187Z,1.70
2023-03-19T13:32:28.792Z,1.77
2023-03-19T13:35:10.567Z,1.30
2023-03-19T13:37:43.132Z,1.53
2023-03-19T13:40:26.334Z,1.83
2023-03-19T13:42:58.168Z,1.63
2023-03-19T13:45:33.212Z,1.67
2023-03-19T13:48:24.661Z,1.60
2023-03-19T13:50:56.905Z,1.03
2023-03-19T13:53:35.551Z,1.40
2023-03-19T13:56:12.819Z,1.97
2023-03-19T13:58:52.212Z,2.17
2023-03-19T14:01:41.782Z,1.60
2023-03-19T14:04:18.562Z,1.40
2023-03-19T14:06:48.044Z,1.73
2023-03-19T14:09:33.772Z,1.63
2023-03-19T14:12:23.216Z,1.63
2023-03-19T14:14:52.968Z,1.43
2023-03-19T14:17:24.162Z,1.53
2023-03-19T14:19:54.348Z,1.37
2023-03-19T14:22:31.231Z,1.33
2023-03-19T14:25:17.152Z,1.27
2023-03-19T14:27:47.813Z,1.30
2023-03-19T14:30:23.025Z,1.30
2023-03-19T14:32:53.114Z,1.30
2023-03-19T14:35:22.113Z,1.00
2023-03-19T14:37:51.449Z,1.40
2023-03-19T14:40:22.526Z,1.20
2023-03-19T14:42:59.547Z,1.03
2023-03-19T14:45:35.431Z,1.10
2023-03-19T14:48:14.357Z,1.77
2023-03-19T14:51:02.963Z,0.80
2023-03-19T14:53:35.574Z,0.80
2023-03-19T14:56:12.066Z,1.00
2023-03-19T14:58:48.825Z,0.83
2023-03-19T15:01:17.541Z,1.60
2023-03-19T15:03:47.907Z,0.90
2023-03-19T15:06:16.725Z,0.90
2023-03-19T15:08:45.328Z,0.70
2023-03-19T15:11:31.633Z,1.27
2023-03-19T15:14:11.898Z,1.17
2023-03-19T15:16:44.928Z,0.80
2023-03-19T15:19:15.185Z,1.43
2023-03-19T15:21:43.578Z,1.20
2023-03-19T15:24:16.526Z,1.57
2023-03-19T15:26:45.495Z,1.30
2023-03-19T15:29:14.379Z,1.50
2023-03-19T15:31:51.675Z,1.40
2023-03-19T15:34:24.365Z,1.30
2023-03-19T15:36:55.060Z,1.40
2023-03-19T15:39:27.603Z,1.40
2023-03-19T15:41:57.299Z,1.70
2023-03-19T15:44:27.753Z,1.73
2023-03-19T15:46:57.549Z,1.70
2023-03-19T15:49:30.133Z,2.13
2023-03-19T15:52:00.831Z,1.50
2023-03-19T15:54:29.419Z,1.60
2023-03-19T15:56:58.074Z,1.50
2023-03-19T15:59:29.979Z,1.10
2023-03-19T16:01:59.092Z,1.47
2023-03-19T16:04:29.741Z,1.67
2023-03-19T16:06:59.080Z,1.70
2023-03-19T16:09:28.410Z,1.80
2023-03-19T16:11:57.125Z,1.70
2023-03-19T16:14:27.003Z,1.67
2023-03-19T16:17:02.557Z,2.10
2023-03-19T16:19:37.167Z,3.17
2023-03-19T16:22:06.421Z,2.90
2023-03-19T16:24:37.625Z,2.30
2023-03-19T16:27:08.436Z,1.40
2023-03-19T16:29:39.659Z,1.30
2023-03-19T16:32:18.764Z,1.43
2023-03-19T16:34:50.408Z,2.17
2023-03-19T16:37:28.856Z,2.10
2023-03-19T16:39:57.986Z,1.77
2023-03-19T16:42:38.983Z,1.80
2023-03-19T16:45:20.054Z,2.33
2023-03-19T16:47:49.094Z,2.37
2023-03-19T16:50:19.465Z,2.20
2023-03-19T16:52:48.502Z,2.00
2023-03-19T16:55:21.879Z,1.70
2023-03-19T16:57:55.661Z,2.00
2023-03-19T17:00:24.695Z,2.00
2023-03-19T17:02:53.080Z,2.00
2023-03-19T17:05:22.785Z,2.30
2023-03-19T17:07:51.358Z,1.90
2023-03-19T17:10:21.095Z,1.97
2023-03-19T17:12:50.787Z,3.27
2023-03-19T17:15:24.196Z,1.97
2023-03-19T17:17:52.787Z,1.87
2023-03-19T17:20:24.140Z,2.23
2023-03-19T17:22:52.509Z,2.47
2023-03-19T17:25:21.405Z,2.63
2023-03-19T17:27:49.729Z,2.80
2023-03-19T17:30:18.304Z,2.03
2023-03-19T17:32:49.579Z,3.40
2023-03-19T17:35:19.183Z,2.73
2023-03-19T17:37:49.482Z,2.20
2023-03-19T17:40:18.945Z,2.43
2023-03-19T17:42:47.490Z,2.47
2023-03-19T17:45:16.582Z,2.50
2023-03-19T17:47:46.569Z,2.43
2023-03-19T17:50:20.270Z,2.20
2023-03-19T17:52:50.352Z,2.53
2023-03-19T17:55:19.354Z,2.17
2023-03-19T17:57:49.193Z,2.80
2023-03-19T18:00:18.101Z,1.70
2023-03-19T18:02:47.489Z,2.00
2023-03-19T18:05:17.297Z,2.30
2023-03-19T18:07:45.888Z,2.33
2023-03-19T18:10:19.975Z,2.00
2023-03-19T18:12:49.327Z,2.07
2023-03-19T18:15:18.434Z,2.07
2023-03-19T18:17:49.712Z,2.40
2023-03-19T18:20:18.856Z,2.63
2023-03-19T18:22:47.387Z,2.50
2023-03-19T18:25:21.447Z,2.50
2023-03-19T18:27:49.833Z,1.50
2023-03-19T18:30:19.230Z,2.80
2023-03-19T18:32:49.598Z,1.87
2023-03-19T18:35:18.770Z,2.83
2023-03-19T18:37:48.331Z,3.03
2023-03-19T18:40:17.007Z,2.80
2023-03-19T18:42:46.993Z,3.40
2023-03-19T18:45:15.516Z,2.07
2023-03-19T18:47:44.273Z,2.43
2023-03-19T18:50:19.390Z,1.77
2023-03-19T18:52:48.552Z,1.60
2023-03-19T18:55:17.492Z,10.67
2023-03-19T18:57:53.584Z,5.43
2023-03-19T19:00:23.487Z,2.97
2023-03-19T19:02:52.134Z,2.20
2023-03-19T19:05:23.592Z,2.00
2023-03-19T19:07:52.137Z,1.80
2023-03-19T19:10:20.876Z,2.23
2023-03-19T19:12:52.578Z,2.30
2023-03-19T19:15:22.427Z,2.20
2023-03-19T19:17:51.115Z,2.60
2023-03-19T19:20:19.665Z,2.23
2023-03-19T19:22:48.369Z,2.50
2023-03-19T19:25:17.601Z,2.33
2023-03-19T19:27:47.071Z,2.40
2023-03-19T19:30:18.797Z,3.03
2023-03-19T19:32:47.697Z,2.10
2023-03-19T19:35:17.667Z,2.30
2023-03-19T19:37:46.063Z,3.23
2023-03-19T19:40:16.062Z,2.20
2023-03-19T19:42:45.171Z,1.90
2023-03-19T19:45:22.017Z,2.13
2023-03-19T19:47:50.393Z,2.50
2023-03-19T19:50:19.561Z,2.47
2023-03-19T19:52:48.483Z,2.60
2023-03-19T19:55:17.042Z,3.13
2023-03-19T19:57:45.990Z,2.93
2023-03-19T20:00:17.979Z,3.20
2023-03-19T20:02:47.727Z,2.20
2023-03-19T20:05:21.673Z,3.53
2023-03-19T20:07:50.794Z,3.70
2023-03-19T20:10:19.415Z,3.20
2023-03-19T20:12:48.755Z,3.53
2023-03-19T20:15:18.497Z,2.40
2023-03-19T20:17:48.412Z,3.63
2023-03-19T20:20:17.993Z,3.00
2023-03-19T20:22:46.809Z,2.27
2023-03-19T20:25:15.921Z,2.00
2023-03-19T20:27:44.592Z,3.33
2023-03-19T20:30:26.640Z,1.70
2023-03-19T20:32:57.901Z,1.40
2023-03-19T20:35:27.052Z,1.90
2023-03-19T20:37:56.787Z,2.37
2023-03-19T20:40:27.130Z,2.53
2023-03-19T20:42:55.665Z,2.63
2023-03-19T20:45:24.527Z,2.37
2023-03-19T20:47:54.136Z,2.80
2023-03-19T20:50:25.416Z,1.57
2023-03-19T20:52:55.397Z,2.60
2023-03-19T20:55:24.512Z,2.20
2023-03-19T20:57:53.531Z,2.20
2023-03-19T21:00:24.675Z,2.17
2023-03-19T21:02:53.845Z,1.70
2023-03-19T21:05:24.041Z,1.60
2023-03-19T21:07:53.103Z,2.30
2023-03-19T21:10:40.080Z,1.20
2023-03-19T21:13:08.444Z,2.10
2023-03-19T21:15:37.038Z,2.37
2023-03-19T21:18:05.584Z,1.73
2023-03-19T21:20:35.589Z,1.90
2023-03-19T21:23:09.572Z,2.37
2023-03-19T21:25:38.037Z,2.30
2023-03-19T21:28:07.990Z,2.27
2023-03-19T21:30:38.870Z,1.90
2023-03-19T21:33:07.263Z,2.00
2023-03-19T21:35:37.928Z,2.67
2023-03-19T21:38:06.572Z,1.33
2023-03-19T21:40:34.944Z,2.10
2023-03-19T21:43:04.284Z,2.60
2023-03-19T21:45:33.868Z,2.97
2023-03-19T21:48:04.193Z,2.03
2023-03-19T21:50:33.175Z,2.27
2023-03-19T21:53:03.149Z,2.17
2023-03-19T21:55:33.393Z,1.70
2023-03-19T21:58:01.993Z,1.83
2023-03-19T22:00:31.486Z,1.80
2023-03-19T22:02:59.967Z,2.60
2023-03-19T22:05:29.018Z,2.37
2023-03-19T22:07:57.559Z,2.43
2023-03-19T22:10:29.363Z,2.27
2023-03-19T22:12:57.827Z,2.40
2023-03-19T22:15:30.238Z,3.27
2023-03-19T22:17:59.907Z,3.23
2023-03-19T22:20:28.351Z,3.27
2023-03-19T22:22:58.292Z,3.77
2023-03-19T22:25:31.177Z,4.37
2023-03-19T22:28:00.258Z,3.03
2023-03-19T22:30:33.533Z,2.43
2023-03-19T22:33:02.792Z,2.87
2023-03-19T22:35:31.477Z,2.17
2023-03-19T22:37:59.939Z,3.17
2023-03-19T22:40:29.872Z,2.73
2023-03-19T22:42:58.313Z,2.10
2023-03-19T22:45:28.209Z,2.20
2023-03-19T22:47:58.016Z,3.23
2023-03-19T22:50:27.516Z,2.37
2023-03-19T22:52:56.116Z,3.27
2023-03-19T22:55:24.666Z,2.97
2023-03-19T22:57:54.573Z,2.60
2023-03-19T23:00:25.981Z,3.20
2023-03-19T23:02:57.362Z,3.40
2023-03-19T23:05:31.377Z,3.73
2023-03-19T23:08:00.015Z,2.77
2023-03-19T23:10:30.581Z,3.70
2023-03-19T23:13:01.019Z,2.80
2023-03-19T23:15:31.042Z,3.50
2023-03-19T23:18:01.318Z,3.20
2023-03-19T23:20:32.466Z,3.20
2023-03-19T23:23:00.879Z,3.03
2023-03-19T23:25:30.766Z,2.57
2023-03-19T23:28:02.527Z,2.80
2023-03-19T23:30:32.366Z,3.90
2023-03-19T23:33:02.603Z,2.90
2023-03-19T23:35:32.396Z,2.90
2023-03-19T23:38:01.946Z,3.03
2023-03-19T23:40:33.147Z,2.63
2023-03-19T23:43:03.429Z,3.60
2023-03-19T23:45:36.484Z,3.97
2023-03-19T23:48:06.254Z,4.90
2023-03-19T23:50:35.147Z,3.77
2023-03-19T23:53:03.624Z,4.03
2023-03-19T23:55:32.755Z,3.87
2023-03-19T23:58:01.566Z,3.90
